sensor_id;sensor_type;location;lat;lon;timestamp;P1;durP1;ratioP1;P2;durP2;ratioP2
19179;SDS011;9722;48.754;8.868;2023-04-08T00:01:00;9.97;;;6.80;;
19179;SDS011;9722;48.754;8.868;2023-04-08T00:04:20;7.77;;;7.10;;
19179;SDS011;9722;48.754;8.868;2023-04-08T00:07:41;7.97;;;7.27;;
19179;SDS011;9722;48.754;8.868;2023-04-08T00:11:01;8.23;;;7.43;;
19179;SDS011;9722;48.754;8.868;2023-04-08T00:14:22;8.80;;;8.00;;
19179;SDS011;9722;48.754;8.868;2023-04-08T00:17:42;8.30;;;7.57;;
19179;SDS011;9722;48.754;8.868;2023-04-08T00:21:04;7.27;;;6.57;;
19179;SDS011;9722;48.754;8.868;2023-04-08T00:24:24;7.63;;;7.03;;
19179;SDS011;9722;48.754;8.868;2023-04-08T00:27:45;6.43;;;5.93;;
19179;SDS011;9722;48.754;8.868;2023-04-08T00:31:05;7.30;;;6.70;;
19179;SDS011;9722;48.754;8.868;2023-04-08T00:34:26;6.53;;;6.03;;
19179;SDS011;9722;48.754;8.868;2023-04-08T00:37:46;7.00;;;6.50;;
19179;SDS011;9722;48.754;8.868;2023-04-08T00:41:07;6.93;;;6.43;;
19179;SDS011;9722;48.754;8.868;2023-04-08T00:44:28;7.17;;;6.57;;
19179;SDS011;9722;48.754;8.868;2023-04-08T00:47:48;6.60;;;6.10;;
19179;SDS011;9722;48.754;8.868;2023-04-08T00:51:11;7.50;;;6.90;;
19179;SDS011;9722;48.754;8.868;2023-04-08T00:54:32;8.40;;;7.80;;
19179;SDS011;9722;48.754;8.868;2023-04-08T00:57:53;7.27;;;6.67;;
19179;SDS011;9722;48.754;8.868;2023-04-08T01:01:18;8.00;;;7.30;;
19179;SDS011;9722;48.754;8.868;2023-04-08T01:08:30;7.80;;;7.10;;
19179;SDS011;9722;48.754;8.868;2023-04-08T01:11:52;8.10;;;7.40;;
19179;SDS011;9722;48.754;8.868;2023-04-08T01:15:15;8.50;;;7.73;;
19179;SDS011;9722;48.754;8.868;2023-04-08T01:18:36;8.43;;;7.73;;
19179;SDS011;9722;48.754;8.868;2023-04-08T01:22:00;8.73;;;8.03;;
19179;SDS011;9722;48.754;8.868;2023-04-08T01:25:34;8.37;;;7.67;;
19179;SDS011;9722;48.754;8.868;2023-04-08T01:28:56;9.07;;;8.30;;
19179;SDS011;9722;48.754;8.868;2023-04-08T01:32:19;9.83;;;8.93;;
19179;SDS011;9722;48.754;8.868;2023-04-08T01:35:40;9.30;;;8.50;;
19179;SDS011;9722;48.754;8.868;2023-04-08T01:39:00;10.13;;;9.23;;
19179;SDS011;9722;48.754;8.868;2023-04-08T01:42:24;9.17;;;8.47;;
19179;SDS011;9722;48.754;8.868;2023-04-08T01:45:47;9.77;;;8.97;;
19179;SDS011;9722;48.754;8.868;2023-04-08T01:49:09;9.90;;;9.00;;
19179;SDS011;9722;48.754;8.868;2023-04-08T01:52:30;10.90;;;9.90;;
19179;SDS011;9722;48.754;8.868;2023-04-08T01:55:56;10.57;;;9.53;;
19179;SDS011;9722;48.754;8.868;2023-04-08T01:59:23;9.40;;;8.60;;
19179;SDS011;9722;48.754;8.868;2023-04-08T02:02:50;10.53;;;9.53;;
19179;SDS011;9722;48.754;8.868;2023-04-08T02:06:12;9.80;;;8.87;;
19179;SDS011;9722;48.754;8.868;2023-04-08T02:09:32;11.00;;;9.90;;
19179;SDS011;9722;48.754;8.868;2023-04-08T02:12:53;11.17;;;10.00;;
19179;SDS011;9722;48.754;8.868;2023-04-08T02:16:19;10.10;;;9.17;;
19179;SDS011;9722;48.754;8.868;2023-04-08T02:19:44;12.50;;;9.50;;
19179;SDS011;9722;48.754;8.868;2023-04-08T02:23:20;9.87;;;8.87;;
19179;SDS011;9722;48.754;8.868;2023-04-08T02:26:43;10.23;;;9.17;;
19179;SDS011;9722;48.754;8.868;2023-04-08T02:30:07;10.57;;;9.53;;
19179;SDS011;9722;48.754;8.868;2023-04-08T02:33:30;10.83;;;9.83;;
19179;SDS011;9722;48.754;8.868;2023-04-08T02:36:53;9.50;;;8.30;;
19179;SDS011;9722;48.754;8.868;2023-04-08T02:40:24;10.10;;;9.10;;
19179;SDS011;9722;48.754;8.868;2023-04-08T02:43:46;10.10;;;9.10;;
19179;SDS011;9722;48.754;8.868;2023-04-08T02:47:07;9.53;;;8.67;;
19179;SDS011;9722;48.754;8.868;2023-04-08T02:50:27;9.50;;;8.60;;
19179;SDS011;9722;48.754;8.868;2023-04-08T02:53:48;8.70;;;7.87;;
19179;SDS011;9722;48.754;8.868;2023-04-08T02:57:08;8.90;;;8.00;;
19179;SDS011;9722;48.754;8.868;2023-04-08T03:00:29;8.00;;;7.30;;
19179;SDS011;9722;48.754;8.868;2023-04-08T03:03:49;7.43;;;6.73;;
19179;SDS011;9722;48.754;8.868;2023-04-08T03:07:10;7.47;;;6.77;;
19179;SDS011;9722;48.754;8.868;2023-04-08T03:10:30;8.20;;;7.40;;
19179;SDS011;9722;48.754;8.868;2023-04-08T03:13:51;7.53;;;6.80;;
19179;SDS011;9722;48.754;8.868;2023-04-08T03:17:11;7.33;;;6.63;;
19179;SDS011;9722;48.754;8.868;2023-04-08T03:20:32;7.70;;;6.90;;
19179;SDS011;9722;48.754;8.868;2023-04-08T03:23:52;8.17;;;7.37;;
19179;SDS011;9722;48.754;8.868;2023-04-08T03:27:13;8.00;;;7.23;;
19179;SDS011;9722;48.754;8.868;2023-04-08T03:30:34;8.57;;;7.80;;
19179;SDS011;9722;48.754;8.868;2023-04-08T03:33:54;8.03;;;7.33;;
19179;SDS011;9722;48.754;8.868;2023-04-08T03:37:18;8.27;;;7.47;;
19179;SDS011;9722;48.754;8.868;2023-04-08T03:40:38;8.87;;;8.10;;
19179;SDS011;9722;48.754;8.868;2023-04-08T03:43:59;8.13;;;7.43;;
19179;SDS011;9722;48.754;8.868;2023-04-08T03:47:20;7.70;;;7.07;;
19179;SDS011;9722;48.754;8.868;2023-04-08T03:50:40;8.20;;;7.50;;
19179;SDS011;9722;48.754;8.868;2023-04-08T03:54:01;8.10;;;7.40;;
19179;SDS011;9722;48.754;8.868;2023-04-08T03:57:21;7.77;;;7.07;;
19179;SDS011;9722;48.754;8.868;2023-04-08T04:00:42;7.93;;;7.23;;
19179;SDS011;9722;48.754;8.868;2023-04-08T04:04:02;7.67;;;7.00;;
19179;SDS011;9722;48.754;8.868;2023-04-08T04:07:23;8.00;;;7.17;;
19179;SDS011;9722;48.754;8.868;2023-04-08T04:10:43;7.30;;;6.60;;
19179;SDS011;9722;48.754;8.868;2023-04-08T04:14:04;8.00;;;7.00;;
19179;SDS011;9722;48.754;8.868;2023-04-08T04:17:24;7.27;;;6.63;;
19179;SDS011;9722;48.754;8.868;2023-04-08T04:20:45;7.07;;;6.43;;
19179;SDS011;9722;48.754;8.868;2023-04-08T04:24:06;7.60;;;6.90;;
19179;SDS011;9722;48.754;8.868;2023-04-08T04:27:26;8.90;;;8.10;;
19179;SDS011;9722;48.754;8.868;2023-04-08T04:30:47;8.50;;;7.70;;
19179;SDS011;9722;48.754;8.868;2023-04-08T04:34:07;8.67;;;7.83;;
19179;SDS011;9722;48.754;8.868;2023-04-08T04:37:28;8.80;;;8.00;;
19179;SDS011;9722;48.754;8.868;2023-04-08T04:40:48;8.53;;;7.83;;
19179;SDS011;9722;48.754;8.868;2023-04-08T04:44:09;8.93;;;8.07;;
19179;SDS011;9722;48.754;8.868;2023-04-08T04:47:30;8.63;;;7.80;;
19179;SDS011;9722;48.754;8.868;2023-04-08T04:50:55;7.97;;;7.37;;
19179;SDS011;9722;48.754;8.868;2023-04-08T04:54:16;8.80;;;7.90;;
19179;SDS011;9722;48.754;8.868;2023-04-08T04:57:36;8.43;;;7.10;;
19179;SDS011;9722;48.754;8.868;2023-04-08T05:00:57;8.53;;;7.63;;
19179;SDS011;9722;48.754;8.868;2023-04-08T05:04:17;8.77;;;8.07;;
19179;SDS011;9722;48.754;8.868;2023-04-08T05:07:38;9.53;;;8.47;;
19179;SDS011;9722;48.754;8.868;2023-04-08T05:10:58;9.73;;;8.83;;
19179;SDS011;9722;48.754;8.868;2023-04-08T05:14:21;9.80;;;8.90;;
19179;SDS011;9722;48.754;8.868;2023-04-08T05:17:41;9.30;;;8.47;;
19179;SDS011;9722;48.754;8.868;2023-04-08T05:21:02;8.97;;;8.13;;
19179;SDS011;9722;48.754;8.868;2023-04-08T05:24:23;9.87;;;8.97;;
19179;SDS011;9722;48.754;8.868;2023-04-08T05:27:43;9.63;;;8.83;;
19179;SDS011;9722;48.754;8.868;2023-04-08T05:31:04;9.57;;;8.77;;
19179;SDS011;9722;48.754;8.868;2023-04-08T05:34:25;9.00;;;8.20;;
19179;SDS011;9722;48.754;8.868;2023-04-08T05:37:45;9.37;;;8.37;;
19179;SDS011;9722;48.754;8.868;2023-04-08T05:41:06;9.20;;;8.40;;
19179;SDS011;9722;48.754;8.868;2023-04-08T05:44:26;9.07;;;8.37;;
19179;SDS011;9722;48.754;8.868;2023-04-08T05:47:47;9.07;;;8.17;;
19179;SDS011;9722;48.754;8.868;2023-04-08T05:51:12;9.03;;;8.23;;
19179;SDS011;9722;48.754;8.868;2023-04-08T05:54:33;8.47;;;7.77;;
19179;SDS011;9722;48.754;8.868;2023-04-08T05:57:53;8.13;;;7.43;;
19179;SDS011;9722;48.754;8.868;2023-04-08T06:01:14;8.83;;;8.00;;
19179;SDS011;9722;48.754;8.868;2023-04-08T06:04:34;9.17;;;8.23;;
19179;SDS011;9722;48.754;8.868;2023-04-08T06:07:55;10.10;;;8.77;;
19179;SDS011;9722;48.754;8.868;2023-04-08T06:11:15;11.53;;;10.23;;
19179;SDS011;9722;48.754;8.868;2023-04-08T06:14:36;9.83;;;8.73;;
19179;SDS011;9722;48.754;8.868;2023-04-08T06:17:56;8.90;;;8.17;;
19179;SDS011;9722;48.754;8.868;2023-04-08T06:21:17;9.17;;;8.33;;
19179;SDS011;9722;48.754;8.868;2023-04-08T06:24:38;8.20;;;7.50;;
19179;SDS011;9722;48.754;8.868;2023-04-08T06:27:59;7.07;;;6.47;;
19179;SDS011;9722;48.754;8.868;2023-04-08T06:31:19;7.63;;;6.93;;
19179;SDS011;9722;48.754;8.868;2023-04-08T06:34:40;6.77;;;5.97;;
19179;SDS011;9722;48.754;8.868;2023-04-08T06:38:01;6.30;;;5.67;;
19179;SDS011;9722;48.754;8.868;2023-04-08T06:41:22;6.07;;;5.57;;
19179;SDS011;9722;48.754;8.868;2023-04-08T06:44:42;7.00;;;6.40;;
19179;SDS011;9722;48.754;8.868;2023-04-08T06:48:03;6.87;;;6.17;;
19179;SDS011;9722;48.754;8.868;2023-04-08T06:51:23;8.00;;;7.20;;
19179;SDS011;9722;48.754;8.868;2023-04-08T06:54:44;7.97;;;7.13;;
19179;SDS011;9722;48.754;8.868;2023-04-08T06:58:05;8.20;;;6.63;;
19179;SDS011;9722;48.754;8.868;2023-04-08T07:01:25;8.77;;;7.70;;
19179;SDS011;9722;48.754;8.868;2023-04-08T07:04:46;8.53;;;7.73;;
19179;SDS011;9722;48.754;8.868;2023-04-08T07:08:07;8.27;;;6.97;;
19179;SDS011;9722;48.754;8.868;2023-04-08T07:11:27;8.17;;;7.37;;
19179;SDS011;9722;48.754;8.868;2023-04-08T07:14:48;7.97;;;7.17;;
19179;SDS011;9722;48.754;8.868;2023-04-08T07:18:08;7.10;;;6.43;;
19179;SDS011;9722;48.754;8.868;2023-04-08T07:21:29;6.83;;;6.23;;
19179;SDS011;9722;48.754;8.868;2023-04-08T07:24:50;6.80;;;6.17;;
19179;SDS011;9722;48.754;8.868;2023-04-08T07:28:11;5.70;;;5.20;;
19179;SDS011;9722;48.754;8.868;2023-04-08T07:31:31;5.97;;;5.47;;
19179;SDS011;9722;48.754;8.868;2023-04-08T07:34:52;5.40;;;5.00;;
19179;SDS011;9722;48.754;8.868;2023-04-08T07:38:13;5.70;;;5.20;;
19179;SDS011;9722;48.754;8.868;2023-04-08T07:41:33;4.70;;;4.40;;
19179;SDS011;9722;48.754;8.868;2023-04-08T07:44:55;4.97;;;4.50;;
19179;SDS011;9722;48.754;8.868;2023-04-08T07:48:16;4.67;;;4.27;;
19179;SDS011;9722;48.754;8.868;2023-04-08T07:51:36;5.37;;;4.87;;
19179;SDS011;9722;48.754;8.868;2023-04-08T07:54:57;5.20;;;4.70;;
19179;SDS011;9722;48.754;8.868;2023-04-08T07:58:17;5.50;;;4.50;;
19179;SDS011;9722;48.754;8.868;2023-04-08T08:01:38;5.37;;;4.87;;
19179;SDS011;9722;48.754;8.868;2023-04-08T08:04:59;5.50;;;5.10;;
19179;SDS011;9722;48.754;8.868;2023-04-08T08:08:20;4.90;;;4.50;;
19179;SDS011;9722;48.754;8.868;2023-04-08T08:11:41;4.57;;;4.17;;
19179;SDS011;9722;48.754;8.868;2023-04-08T08:15:01;5.43;;;5.03;;
19179;SDS011;9722;48.754;8.868;2023-04-08T08:18:22;5.67;;;5.17;;
19179;SDS011;9722;48.754;8.868;2023-04-08T08:21:43;5.20;;;4.73;;
19179;SDS011;9722;48.754;8.868;2023-04-08T08:25:04;5.30;;;4.90;;
19179;SDS011;9722;48.754;8.868;2023-04-08T08:28:25;6.23;;;5.73;;
19179;SDS011;9722;48.754;8.868;2023-04-08T08:31:46;6.00;;;5.50;;
19179;SDS011;9722;48.754;8.868;2023-04-08T08:35:07;6.53;;;5.93;;
19179;SDS011;9722;48.754;8.868;2023-04-08T08:38:28;6.30;;;5.80;;
19179;SDS011;9722;48.754;8.868;2023-04-08T08:41:48;6.07;;;5.57;;
19179;SDS011;9722;48.754;8.868;2023-04-08T08:45:09;7.57;;;6.87;;
19179;SDS011;9722;48.754;8.868;2023-04-08T08:48:30;7.27;;;6.67;;
19179;SDS011;9722;48.754;8.868;2023-04-08T08:51:51;7.37;;;6.77;;
19179;SDS011;9722;48.754;8.868;2023-04-08T08:55:14;8.03;;;7.33;;
19179;SDS011;9722;48.754;8.868;2023-04-08T08:58:36;7.53;;;6.83;;
19179;SDS011;9722;48.754;8.868;2023-04-08T09:01:58;8.27;;;7.57;;
19179;SDS011;9722;48.754;8.868;2023-04-08T09:05:18;7.83;;;7.13;;
19179;SDS011;9722;48.754;8.868;2023-04-08T09:08:39;7.67;;;7.07;;
19179;SDS011;9722;48.754;8.868;2023-04-08T09:12:04;8.63;;;7.93;;
19179;SDS011;9722;48.754;8.868;2023-04-08T09:15:25;8.97;;;8.17;;
19179;SDS011;9722;48.754;8.868;2023-04-08T09:18:46;7.87;;;7.27;;
19179;SDS011;9722;48.754;8.868;2023-04-08T09:22:09;7.27;;;6.77;;
19179;SDS011;9722;48.754;8.868;2023-04-08T09:25:30;7.53;;;6.93;;
19179;SDS011;9722;48.754;8.868;2023-04-08T09:28:59;7.30;;;6.80;;
19179;SDS011;9722;48.754;8.868;2023-04-08T09:32:23;8.40;;;7.60;;
19179;SDS011;9722;48.754;8.868;2023-04-08T09:35:43;8.30;;;7.70;;
19179;SDS011;9722;48.754;8.868;2023-04-08T09:39:05;7.63;;;7.13;;
19179;SDS011;9722;48.754;8.868;2023-04-08T09:42:26;8.17;;;7.57;;
19179;SDS011;9722;48.754;8.868;2023-04-08T09:45:47;7.50;;;7.00;;
19179;SDS011;9722;48.754;8.868;2023-04-08T09:49:12;7.93;;;7.33;;
19179;SDS011;9722;48.754;8.868;2023-04-08T09:52:48;8.07;;;7.47;;
19179;SDS011;9722;48.754;8.868;2023-04-08T09:56:16;7.40;;;6.90;;
19179;SDS011;9722;48.754;8.868;2023-04-08T09:59:40;8.00;;;7.40;;
19179;SDS011;9722;48.754;8.868;2023-04-08T10:03:18;9.07;;;8.37;;
19179;SDS011;9722;48.754;8.868;2023-04-08T10:06:51;8.40;;;7.80;;
19179;SDS011;9722;48.754;8.868;2023-04-08T10:10:16;8.33;;;7.73;;
19179;SDS011;9722;48.754;8.868;2023-04-08T10:13:37;8.03;;;7.43;;
19179;SDS011;9722;48.754;8.868;2023-04-08T10:20:46;8.10;;;7.57;;
19179;SDS011;9722;48.754;8.868;2023-04-08T10:24:08;9.07;;;8.37;;
19179;SDS011;9722;48.754;8.868;2023-04-08T10:27:39;7.87;;;7.37;;
19179;SDS011;9722;48.754;8.868;2023-04-08T10:31:00;8.37;;;7.77;;
19179;SDS011;9722;48.754;8.868;2023-04-08T10:34:22;9.30;;;8.57;;
19179;SDS011;9722;48.754;8.868;2023-04-08T10:37:45;7.73;;;7.13;;
19179;SDS011;9722;48.754;8.868;2023-04-08T10:41:06;8.80;;;8.10;;
19179;SDS011;9722;48.754;8.868;2023-04-08T10:44:26;8.67;;;7.97;;
19179;SDS011;9722;48.754;8.868;2023-04-08T10:47:47;8.67;;;8.07;;
19179;SDS011;9722;48.754;8.868;2023-04-08T10:51:07;8.20;;;7.60;;
19179;SDS011;9722;48.754;8.868;2023-04-08T10:54:28;8.07;;;7.37;;
19179;SDS011;9722;48.754;8.868;2023-04-08T10:57:51;8.23;;;7.63;;
19179;SDS011;9722;48.754;8.868;2023-04-08T11:01:12;7.73;;;7.13;;
19179;SDS011;9722;48.754;8.868;2023-04-08T11:04:33;8.23;;;7.53;;
19179;SDS011;9722;48.754;8.868;2023-04-08T11:08:01;8.20;;;7.50;;
19179;SDS011;9722;48.754;8.868;2023-04-08T11:11:23;8.73;;;8.13;;
19179;SDS011;9722;48.754;8.868;2023-04-08T11:14:48;8.57;;;7.87;;
19179;SDS011;9722;48.754;8.868;2023-04-08T11:18:11;7.50;;;7.00;;
19179;SDS011;9722;48.754;8.868;2023-04-08T11:21:35;8.60;;;7.90;;
19179;SDS011;9722;48.754;8.868;2023-04-08T11:24:56;8.50;;;7.83;;
19179;SDS011;9722;48.754;8.868;2023-04-08T11:28:18;8.87;;;8.17;;
19179;SDS011;9722;48.754;8.868;2023-04-08T11:31:40;8.57;;;7.97;;
19179;SDS011;9722;48.754;8.868;2023-04-08T11:35:05;8.80;;;8.10;;
19179;SDS011;9722;48.754;8.868;2023-04-08T11:38:26;8.20;;;7.60;;
19179;SDS011;9722;48.754;8.868;2023-04-08T11:41:47;8.83;;;8.13;;
19179;SDS011;9722;48.754;8.868;2023-04-08T11:45:11;8.37;;;7.67;;
19179;SDS011;9722;48.754;8.868;2023-04-08T11:48:33;9.33;;;8.63;;
19179;SDS011;9722;48.754;8.868;2023-04-08T11:51:54;8.13;;;7.53;;
19179;SDS011;9722;48.754;8.868;2023-04-08T11:55:21;8.13;;;7.53;;
19179;SDS011;9722;48.754;8.868;2023-04-08T11:58:47;8.30;;;7.70;;
19179;SDS011;9722;48.754;8.868;2023-04-08T12:02:07;9.00;;;8.30;;
19179;SDS011;9722;48.754;8.868;2023-04-08T12:05:28;8.90;;;8.20;;
19179;SDS011;9722;48.754;8.868;2023-04-08T12:08:49;8.27;;;7.60;;
19179;SDS011;9722;48.754;8.868;2023-04-08T12:12:09;8.53;;;7.73;;
19179;SDS011;9722;48.754;8.868;2023-04-08T12:15:30;7.80;;;7.10;;
19179;SDS011;9722;48.754;8.868;2023-04-08T12:18:51;7.53;;;6.93;;
19179;SDS011;9722;48.754;8.868;2023-04-08T12:22:12;8.80;;;8.10;;
19179;SDS011;9722;48.754;8.868;2023-04-08T12:25:32;7.93;;;7.33;;
19179;SDS011;9722;48.754;8.868;2023-04-08T12:28:53;8.40;;;7.60;;
19179;SDS011;9722;48.754;8.868;2023-04-08T12:32:13;9.33;;;8.53;;
19179;SDS011;9722;48.754;8.868;2023-04-08T12:35:34;9.40;;;8.60;;
19179;SDS011;9722;48.754;8.868;2023-04-08T12:38:55;9.83;;;9.03;;
19179;SDS011;9722;48.754;8.868;2023-04-08T12:42:15;9.57;;;8.77;;
19179;SDS011;9722;48.754;8.868;2023-04-08T12:45:36;8.93;;;8.23;;
19179;SDS011;9722;48.754;8.868;2023-04-08T12:48:56;7.90;;;7.30;;
19179;SDS011;9722;48.754;8.868;2023-04-08T12:52:17;8.83;;;8.13;;
19179;SDS011;9722;48.754;8.868;2023-04-08T12:55:38;8.10;;;7.40;;
19179;SDS011;9722;48.754;8.868;2023-04-08T12:58:59;8.47;;;7.77;;
19179;SDS011;9722;48.754;8.868;2023-04-08T13:02:20;8.40;;;7.63;;
19179;SDS011;9722;48.754;8.868;2023-04-08T13:05:40;8.17;;;7.50;;
19179;SDS011;9722;48.754;8.868;2023-04-08T13:09:01;10.83;;;10.03;;
19179;SDS011;9722;48.754;8.868;2023-04-08T13:12:21;9.03;;;8.30;;
19179;SDS011;9722;48.754;8.868;2023-04-08T13:15:42;8.30;;;7.70;;
19179;SDS011;9722;48.754;8.868;2023-04-08T13:19:03;8.07;;;7.30;;
19179;SDS011;9722;48.754;8.868;2023-04-08T13:22:23;9.83;;;8.93;;
19179;SDS011;9722;48.754;8.868;2023-04-08T13:25:44;8.67;;;7.87;;
19179;SDS011;9722;48.754;8.868;2023-04-08T13:29:04;8.30;;;7.60;;
19179;SDS011;9722;48.754;8.868;2023-04-08T13:32:25;8.10;;;7.40;;
19179;SDS011;9722;48.754;8.868;2023-04-08T13:35:46;8.27;;;7.57;;
19179;SDS011;9722;48.754;8.868;2023-04-08T13:39:06;8.17;;;7.57;;
19179;SDS011;9722;48.754;8.868;2023-04-08T13:42:27;8.47;;;7.87;;
19179;SDS011;9722;48.754;8.868;2023-04-08T13:45:50;7.97;;;7.37;;
19179;SDS011;9722;48.754;8.868;2023-04-08T13:49:11;8.00;;;7.40;;
19179;SDS011;9722;48.754;8.868;2023-04-08T13:52:31;7.90;;;7.30;;
19179;SDS011;9722;48.754;8.868;2023-04-08T13:55:52;7.97;;;7.27;;
19179;SDS011;9722;48.754;8.868;2023-04-08T13:59:14;7.70;;;7.03;;
19179;SDS011;9722;48.754;8.868;2023-04-08T14:02:35;8.23;;;7.63;;
19179;SDS011;9722;48.754;8.868;2023-04-08T14:05:56;7.93;;;7.33;;
19179;SDS011;9722;48.754;8.868;2023-04-08T14:09:17;7.73;;;7.03;;
19179;SDS011;9722;48.754;8.868;2023-04-08T14:12:38;7.27;;;6.77;;
19179;SDS011;9722;48.754;8.868;2023-04-08T14:15:59;7.63;;;7.00;;
19179;SDS011;9722;48.754;8.868;2023-04-08T14:19:21;7.97;;;7.37;;
19179;SDS011;9722;48.754;8.868;2023-04-08T14:22:41;7.53;;;6.97;;
19179;SDS011;9722;48.754;8.868;2023-04-08T14:26:02;7.30;;;6.70;;
19179;SDS011;9722;48.754;8.868;2023-04-08T14:29:22;8.00;;;7.40;;
19179;SDS011;9722;48.754;8.868;2023-04-08T14:32:43;8.20;;;7.50;;
19179;SDS011;9722;48.754;8.868;2023-04-08T14:36:04;8.10;;;7.40;;
19179;SDS011;9722;48.754;8.868;2023-04-08T14:39:25;7.20;;;6.70;;
19179;SDS011;9722;48.754;8.868;2023-04-08T14:42:45;8.13;;;7.50;;
19179;SDS011;9722;48.754;8.868;2023-04-08T14:46:08;7.70;;;7.00;;
19179;SDS011;9722;48.754;8.868;2023-04-08T14:49:29;8.13;;;6.87;;
19179;SDS011;9722;48.754;8.868;2023-04-08T14:52:49;8.20;;;7.50;;
19179;SDS011;9722;48.754;8.868;2023-04-08T14:56:10;7.30;;;6.70;;
19179;SDS011;9722;48.754;8.868;2023-04-08T14:59:31;8.10;;;7.50;;
19179;SDS011;9722;48.754;8.868;2023-04-08T15:02:52;7.23;;;6.53;;
19179;SDS011;9722;48.754;8.868;2023-04-08T15:06:12;7.03;;;6.53;;
19179;SDS011;9722;48.754;8.868;2023-04-08T15:09:36;7.60;;;7.00;;
19179;SDS011;9722;48.754;8.868;2023-04-08T15:12:57;7.67;;;6.97;;
19179;SDS011;9722;48.754;8.868;2023-04-08T15:16:17;7.80;;;7.20;;
19179;SDS011;9722;48.754;8.868;2023-04-08T15:19:38;7.90;;;7.23;;
19179;SDS011;9722;48.754;8.868;2023-04-08T15:22:58;7.63;;;7.03;;
19179;SDS011;9722;48.754;8.868;2023-04-08T15:26:19;7.50;;;6.87;;
19179;SDS011;9722;48.754;8.868;2023-04-08T15:29:40;8.10;;;7.50;;
19179;SDS011;9722;48.754;8.868;2023-04-08T15:33:02;7.33;;;6.73;;
19179;SDS011;9722;48.754;8.868;2023-04-08T15:36:23;7.13;;;6.63;;
19179;SDS011;9722;48.754;8.868;2023-04-08T15:39:44;7.90;;;7.30;;
19179;SDS011;9722;48.754;8.868;2023-04-08T15:43:04;7.40;;;6.80;;
19179;SDS011;9722;48.754;8.868;2023-04-08T15:46:25;7.03;;;6.53;;
19179;SDS011;9722;48.754;8.868;2023-04-08T15:49:46;7.83;;;7.03;;
19179;SDS011;9722;48.754;8.868;2023-04-08T15:53:07;8.10;;;7.40;;
19179;SDS011;9722;48.754;8.868;2023-04-08T15:56:28;7.23;;;6.73;;
19179;SDS011;9722;48.754;8.868;2023-04-08T15:59:48;7.57;;;6.80;;
19179;SDS011;9722;48.754;8.868;2023-04-08T16:03:09;7.00;;;6.50;;
19179;SDS011;9722;48.754;8.868;2023-04-08T16:06:30;7.33;;;6.70;;
19179;SDS011;9722;48.754;8.868;2023-04-08T16:09:52;7.70;;;7.00;;
19179;SDS011;9722;48.754;8.868;2023-04-08T16:13:12;8.23;;;7.63;;
19179;SDS011;9722;48.754;8.868;2023-04-08T16:16:33;7.07;;;6.57;;
19179;SDS011;9722;48.754;8.868;2023-04-08T16:19:54;7.07;;;6.57;;
19179;SDS011;9722;48.754;8.868;2023-04-08T16:23:15;6.63;;;6.03;;
19179;SDS011;9722;48.754;8.868;2023-04-08T16:26:36;7.00;;;6.30;;
19179;SDS011;9722;48.754;8.868;2023-04-08T16:29:57;6.33;;;5.80;;
19179;SDS011;9722;48.754;8.868;2023-04-08T16:33:17;5.70;;;5.30;;
19179;SDS011;9722;48.754;8.868;2023-04-08T16:36:38;5.37;;;4.97;;
19179;SDS011;9722;48.754;8.868;2023-04-08T16:39:58;4.73;;;4.33;;
19179;SDS011;9722;48.754;8.868;2023-04-08T16:43:19;5.07;;;4.53;;
19179;SDS011;9722;48.754;8.868;2023-04-08T16:46:40;4.60;;;4.17;;
19179;SDS011;9722;48.754;8.868;2023-04-08T16:50:01;4.20;;;3.90;;
19179;SDS011;9722;48.754;8.868;2023-04-08T16:53:22;4.30;;;4.00;;
19179;SDS011;9722;48.754;8.868;2023-04-08T16:56:42;3.70;;;3.40;;
19179;SDS011;9722;48.754;8.868;2023-04-08T17:00:04;4.20;;;3.90;;
19179;SDS011;9722;48.754;8.868;2023-04-08T17:03:25;3.67;;;3.40;;
19179;SDS011;9722;48.754;8.868;2023-04-08T17:06:46;4.30;;;3.30;;
19179;SDS011;9722;48.754;8.868;2023-04-08T17:10:07;4.23;;;3.90;;
19179;SDS011;9722;48.754;8.868;2023-04-08T17:13:28;4.67;;;3.93;;
19179;SDS011;9722;48.754;8.868;2023-04-08T17:16:49;4.43;;;4.03;;
19179;SDS011;9722;48.754;8.868;2023-04-08T17:20:10;4.03;;;3.73;;
19179;SDS011;9722;48.754;8.868;2023-04-08T17:23:31;4.30;;;3.93;;
19179;SDS011;9722;48.754;8.868;2023-04-08T17:26:51;6.57;;;4.63;;
19179;SDS011;9722;48.754;8.868;2023-04-08T17:30:12;4.67;;;4.37;;
19179;SDS011;9722;48.754;8.868;2023-04-08T17:33:32;4.07;;;3.80;;
19179;SDS011;9722;48.754;8.868;2023-04-08T17:36:53;4.40;;;4.10;;
19179;SDS011;9722;48.754;8.868;2023-04-08T17:40:14;4.73;;;4.40;;
19179;SDS011;9722;48.754;8.868;2023-04-08T17:43:35;4.57;;;4.27;;
19179;SDS011;9722;48.754;8.868;2023-04-08T17:46:55;4.37;;;4.07;;
19179;SDS011;9722;48.754;8.868;2023-04-08T17:50:16;4.37;;;3.97;;
19179;SDS011;9722;48.754;8.868;2023-04-08T17:53:37;4.20;;;3.90;;
19179;SDS011;9722;48.754;8.868;2023-04-08T17:56:57;3.90;;;3.60;;
19179;SDS011;9722;48.754;8.868;2023-04-08T18:00:17;3.93;;;3.63;;
19179;SDS011;9722;48.754;8.868;2023-04-08T18:03:38;6.17;;;4.10;;
19179;SDS011;9722;48.754;8.868;2023-04-08T18:06:58;4.37;;;3.97;;
19179;SDS011;9722;48.754;8.868;2023-04-08T18:10:22;4.67;;;4.37;;
19179;SDS011;9722;48.754;8.868;2023-04-08T18:13:43;4.77;;;4.43;;
19179;SDS011;9722;48.754;8.868;2023-04-08T18:17:04;4.90;;;4.50;;
19179;SDS011;9722;48.754;8.868;2023-04-08T18:20:25;4.90;;;4.43;;
19179;SDS011;9722;48.754;8.868;2023-04-08T18:23:46;4.47;;;4.17;;
19179;SDS011;9722;48.754;8.868;2023-04-08T18:27:07;5.00;;;4.60;;
19179;SDS011;9722;48.754;8.868;2023-04-08T18:30:28;4.97;;;4.57;;
19179;SDS011;9722;48.754;8.868;2023-04-08T18:33:49;5.07;;;4.67;;
19179;SDS011;9722;48.754;8.868;2023-04-08T18:37:10;4.90;;;4.50;;
19179;SDS011;9722;48.754;8.868;2023-04-08T18:40:30;4.90;;;4.60;;
19179;SDS011;9722;48.754;8.868;2023-04-08T18:43:51;4.70;;;4.30;;
19179;SDS011;9722;48.754;8.868;2023-04-08T18:47:11;5.17;;;4.30;;
19179;SDS011;9722;48.754;8.868;2023-04-08T18:50:32;4.50;;;4.20;;
19179;SDS011;9722;48.754;8.868;2023-04-08T18:53:52;4.83;;;4.43;;
19179;SDS011;9722;48.754;8.868;2023-04-08T18:57:13;4.77;;;4.47;;
19179;SDS011;9722;48.754;8.868;2023-04-08T19:00:33;6.87;;;6.27;;
19179;SDS011;9722;48.754;8.868;2023-04-08T19:03:54;5.00;;;4.70;;
19179;SDS011;9722;48.754;8.868;2023-04-08T19:07:15;5.43;;;4.90;;
19179;SDS011;9722;48.754;8.868;2023-04-08T19:10:36;12.20;;;11.00;;
19179;SDS011;9722;48.754;8.868;2023-04-08T19:13:57;7.03;;;6.30;;
19179;SDS011;9722;48.754;8.868;2023-04-08T19:17:17;6.03;;;5.60;;
19179;SDS011;9722;48.754;8.868;2023-04-08T19:20:38;9.73;;;8.73;;
19179;SDS011;9722;48.754;8.868;2023-04-08T19:23:58;14.40;;;10.97;;
19179;SDS011;9722;48.754;8.868;2023-04-08T19:27:19;5.37;;;4.87;;
19179;SDS011;9722;48.754;8.868;2023-04-08T19:30:40;5.27;;;4.87;;
19179;SDS011;9722;48.754;8.868;2023-04-08T19:34:00;5.93;;;5.43;;
19179;SDS011;9722;48.754;8.868;2023-04-08T19:37:21;6.23;;;5.80;;
19179;SDS011;9722;48.754;8.868;2023-04-08T19:40:41;6.80;;;6.20;;
19179;SDS011;9722;48.754;8.868;2023-04-08T19:44:02;6.33;;;5.83;;
19179;SDS011;9722;48.754;8.868;2023-04-08T19:47:22;5.73;;;5.23;;
19179;SDS011;9722;48.754;8.868;2023-04-08T19:50:43;5.87;;;5.37;;
19179;SDS011;9722;48.754;8.868;2023-04-08T19:54:03;5.80;;;5.40;;
19179;SDS011;9722;48.754;8.868;2023-04-08T19:57:24;6.57;;;6.07;;
19179;SDS011;9722;48.754;8.868;2023-04-08T20:00:45;6.80;;;6.23;;
19179;SDS011;9722;48.754;8.868;2023-04-08T20:04:05;9.20;;;8.37;;
19179;SDS011;9722;48.754;8.868;2023-04-08T20:07:26;10.30;;;9.30;;
19179;SDS011;9722;48.754;8.868;2023-04-08T20:10:46;8.93;;;8.03;;
19179;SDS011;9722;48.754;8.868;2023-04-08T20:14:08;7.83;;;7.03;;
19179;SDS011;9722;48.754;8.868;2023-04-08T20:17:28;13.43;;;10.00;;
19179;SDS011;9722;48.754;8.868;2023-04-08T20:20:49;6.50;;;6.00;;
19179;SDS011;9722;48.754;8.868;2023-04-08T20:24:10;12.27;;;11.07;;
19179;SDS011;9722;48.754;8.868;2023-04-08T20:27:30;11.87;;;9.17;;
19179;SDS011;9722;48.754;8.868;2023-04-08T20:30:51;7.27;;;6.67;;
19179;SDS011;9722;48.754;8.868;2023-04-08T20:34:12;6.10;;;5.60;;
19179;SDS011;9722;48.754;8.868;2023-04-08T20:37:33;7.00;;;6.40;;